Time;durP1;ratioP1;P1;durP2;ratioP2;P2;SDS_P1;SDS_P2;PMS_P1;PMS_P2;Temp;Humidity;BMP_temperature;BMP_pressure;BME280_temperature;BME280_humidity;BME280_pressure;Samples;Min_cycle;Max_cycle;Signal;HPM_P1;HPM_P2
2021/12/01 00:02:15;;;;;;;7.43;5.33;;;;;;;0.29;66.95;96685.38;6209117;23;20664;-62
2021/12/01 00:04:42;;;;;;;7.60;5.23;;;;;;;0.23;66.15;96695.66;6208342;23;20184;-65
2021/12/01 00:07:12;;;;;;;7.20;5.40;;;;;;;0.16;65.78;96678.75;6208966;23;20194;-65
2021/12/01 00:09:39;;;;;;;8.87;5.77;;;;;;;0.38;66.40;96698.84;6209055;23;20225;-61
2021/12/01 00:12:06;;;;;;;8.33;5.00;;;;;;;0.51;66.19;96704.63;6208114;23;20213;-64
2021/12/01 00:14:33;;;;;;;8.57;5.57;;;;;;;0.68;66.12;96700.19;6207587;23;20219;-62
2021/12/01 00:17:00;;;;;;;7.27;5.30;;;;;;;0.73;65.89;96698.41;6208370;23;20186;-61
2021/12/01 00:19:29;;;;;;;9.70;6.00;;;;;;;0.77;65.58;96711.09;6209224;23;20177;-65
2021/12/01 00:21:57;;;;;;;10.30;6.70;;;;;;;0.91;65.63;96699.88;6208360;23;20178;-64
2021/12/01 00:24:24;;;;;;;9.40;6.33;;;;;;;1.01;66.09;96704.81;6208759;23;20649;-61
2021/12/01 00:26:51;;;;;;;15.30;9.07;;;;;;;0.85;64.98;96693.13;6182423;23;20232;-61
2021/12/01 00:29:18;;;;;;;11.77;8.30;;;;;;;0.74;67.21;96697.56;6208149;23;20280;-62
2021/12/01 00:31:45;;;;;;;12.13;7.03;;;;;;;0.64;66.26;96713.78;6209280;23;20196;-63
2021/12/01 00:34:12;;;;;;;13.27;8.07;;;;;;;0.57;66.79;96710.50;6208302;23;20218;-63
2021/12/01 00:36:39;;;;;;;10.30;7.20;;;;;;;0.64;67.48;96718.88;6209002;23;20629;-61
2021/12/01 00:39:07;;;;;;;11.07;7.80;;;;;;;0.57;67.09;96709.66;6208089;23;20185;-61
2021/12/01 00:41:34;;;;;;;12.37;7.17;;;;;;;0.65;67.80;96701.06;6208730;23;20170;-62
2021/12/01 00:44:01;;;;;;;21.50;11.03;;;;;;;0.74;66.32;96706.00;6208672;23;20245;-62
2021/12/01 00:49:33;;;;;;;12.33;8.33;;;;;;;0.52;67.22;96698.66;6175476;23;20243;-61
2021/12/01 00:52:01;;;;;;;10.27;6.33;;;;;;;0.35;67.30;96695.50;6202954;23;20766;-63
2021/12/01 00:54:28;;;;;;;14.23;7.37;;;;;;;0.38;68.12;96687.81;6208907;23;20668;-61
2021/12/01 00:56:55;;;;;;;9.80;6.30;;;;;;;0.55;68.31;96698.63;6207130;23;20737;-62
2021/12/01 00:59:22;;;;;;;11.40;6.33;;;;;;;0.71;67.60;96683.16;6208006;23;20180;-66
2021/12/01 01:01:49;;;;;;;11.93;7.03;;;;;;;0.82;66.68;96683.00;6181488;23;20188;-66
2021/12/01 01:04:17;;;;;;;12.80;7.70;;;;;;;0.74;66.52;96682.25;6207790;23;20189;-62
2021/12/01 01:06:44;;;;;;;9.37;7.20;;;;;;;0.66;66.39;96669.59;6208774;23;20164;-65
2021/12/01 01:09:11;;;;;;;10.43;7.27;;;;;;;0.81;66.83;96682.16;6208038;23;20201;-65
2021/12/01 01:17:19;;;;;;;16.50;8.10;;;;;;;0.27;68.16;96680.28;6207826;23;20252;-65
2021/12/01 01:19:46;;;;;;;13.23;8.47;;;;;;;0.13;68.39;96686.41;6208655;23;20696;-65
2021/12/01 01:22:13;;;;;;;12.43;7.70;;;;;;;0.19;68.62;96676.13;6207844;23;20240;-63
2021/12/01 01:24:41;;;;;;;13.83;7.47;;;;;;;0.27;68.61;96662.47;6208426;23;20169;-66
2021/12/01 01:27:08;;;;;;;11.03;7.17;;;;;;;0.46;69.25;96658.00;6208462;23;20568;-63
2021/12/01 01:29:36;;;;;;;12.90;7.27;;;;;;;0.60;67.54;96663.75;6207879;23;20280;-65
2021/12/01 01:32:04;;;;;;;10.93;6.93;;;;;;;0.58;67.88;96668.03;6208792;23;20169;-66
2021/12/01 01:34:31;;;;;;;11.17;6.73;;;;;;;0.56;68.08;96669.75;6207341;23;20193;-64
2021/12/01 01:36:58;;;;;;;9.10;6.53;;;;;;;0.62;66.91;96667.13;6157616;23;20177;-65
2021/12/01 01:39:25;;;;;;;13.20;7.23;;;;;;;0.46;68.28;96660.53;6207689;23;20184;-64
2021/12/01 01:41:54;;;;;;;10.20;7.23;;;;;;;0.42;68.61;96662.28;6208157;23;20205;-66
2021/12/01 01:44:21;;;;;;;12.50;7.60;;;;;;;0.33;68.34;96641.19;6181976;23;20177;-65
2021/12/01 01:46:48;;;;;;;12.23;8.40;;;;;;;0.30;68.58;96646.31;6207772;23;20896;-65
2021/12/01 01:49:19;;;;;;;15.13;8.03;;;;;;;0.21;68.63;96641.31;6208727;23;20604;-66
2021/12/01 01:51:48;;;;;;;9.47;6.60;;;;;;;-0.04;68.36;96636.53;6207772;23;20245;-65
2021/12/01 01:54:17;;;;;;;11.97;7.13;;;;;;;-0.20;70.13;96642.66;6210358;23;20193;-65
2021/12/01 01:56:44;;;;;;;10.53;6.33;;;;;;;0.05;69.97;96635.59;6210062;23;20186;-65
2021/12/01 01:59:11;;;;;;;10.33;7.33;;;;;;;-0.03;69.82;96642.47;6210037;23;20248;-64
2021/12/01 02:01:44;;;;;;;11.23;7.30;;;;;;;0.05;70.39;96634.75;6210409;23;20184;-65
2021/12/01 02:04:16;;;;;;;8.43;6.20;;;;;;;0.09;69.84;96644.88;6209551;23;20197;-64
2021/12/01 02:06:47;;;;;;;9.20;6.80;;;;;;;0.19;69.40;96640.50;6210746;23;20599;-64
2021/12/01 02:09:19;;;;;;;9.10;6.43;;;;;;;-0.08;68.84;96629.78;6209373;23;20205;-66
2021/12/01 02:11:47;;;;;;;10.03;5.80;;;;;;;0.04;69.33;96620.34;6210125;23;20260;-65
2021/12/01 02:14:16;;;;;;;9.97;6.00;;;;;;;0.22;69.41;96607.38;6210018;23;20166;-63
2021/12/01 02:16:44;;;;;;;9.87;6.10;;;;;;;0.17;68.03;96599.78;6209893;23;20166;-62
2021/12/01 02:19:11;;;;;;;12.17;6.40;;;;;;;0.17;67.64;96599.78;6210195;23;20166;-66
2021/12/01 02:21:39;;;;;;;14.93;7.57;;;;;;;0.31;68.82;96597.09;6209555;23;20523;-63
2021/12/01 02:24:08;;;;;;;11.77;6.30;;;;;;;0.12;67.79;96604.13;6210809;23;20604;-66
2021/12/01 02:26:39;;;;;;;8.53;6.03;;;;;;;0.13;68.04;96597.31;6209449;23;20177;-65
2021/12/01 02:29:10;;;;;;;9.00;5.83;;;;;;;0.13;67.93;96605.78;6210299;23;20228;-65
2021/12/01 02:31:38;;;;;;;10.37;5.57;;;;;;;0.16;68.59;96587.09;6183263;23;20198;-65
2021/12/01 02:34:11;;;;;;;8.47;5.80;;;;;;;0.16;68.06;96595.59;6209562;23;20996;-64
2021/12/01 02:36:41;;;;;;;10.77;6.47;;;;;;;0.24;68.20;96605.66;6210311;23;20177;-65
2021/12/01 02:39:11;;;;;;;11.73;6.00;;;;;;;0.24;68.26;96610.75;6209631;23;20549;-63
2021/12/01 02:41:38;;;;;;;9.53;5.53;;;;;;;0.28;67.25;96609.84;6210124;23;20249;-65
2021/12/01 02:44:07;;;;;;;10.73;6.00;;;;;;;0.20;68.34;96609.09;6209741;23;20579;-62
2021/12/01 02:46:35;;;;;;;7.80;5.83;;;;;;;0.23;68.44;96620.09;6209851;23;20220;-63
2021/12/01 02:49:03;;;;;;;10.23;6.23;;;;;;;0.21;68.08;96596.34;6209650;23;20229;-64
2021/12/01 02:51:32;;;;;;;11.13;7.30;;;;;;;0.33;68.00;96616.56;6209208;23;20180;-64
2021/12/01 02:53:59;;;;;;;13.30;7.50;;;;;;;0.44;68.06;96629.16;6210035;23;20260;-65
2021/12/01 02:56:31;;;;;;;15.17;7.43;;;;;;;0.47;68.14;96601.13;6208880;23;20236;-64
2021/12/01 02:59:01;;;;;;;10.37;7.20;;;;;;;0.50;67.77;96613.78;6209900;23;20987;-62
2021/12/01 03:01:28;;;;;;;9.33;5.67;;;;;;;0.49;67.90;96596.84;6209425;23;20228;-64
2021/12/01 03:03:58;;;;;;;13.37;5.40;;;;;;;0.51;68.00;96595.13;6209530;23;20201;-65
2021/12/01 03:06:26;;;;;;;7.13;5.27;;;;;;;0.45;67.85;96602.84;6207912;23;20189;-63
2021/12/01 03:08:55;;;;;;;6.13;4.87;;;;;;;0.54;69.11;96615.44;6208748;23;20208;-63
2021/12/01 03:11:23;;;;;;;8.43;5.00;;;;;;;0.35;68.97;96584.28;6209514;23;20688;-64
2021/12/01 03:13:50;;;;;;;7.53;5.30;;;;;;;0.39;67.92;96606.28;6208885;23;20157;-65
2021/12/01 03:16:17;;;;;;;8.53;5.80;;;;;;;0.45;69.00;96616.44;6210406;23;20248;-64
2021/12/01 03:18:45;;;;;;;9.13;5.97;;;;;;;0.53;68.46;96631.59;6208927;23;20174;-64
2021/12/01 03:21:13;;;;;;;11.30;5.93;;;;;;;0.36;68.48;96630.97;6209186;23;20162;-63
2021/12/01 03:23:40;;;;;;;7.87;5.57;;;;;;;0.36;68.85;96623.31;6209874;23;20169;-65
2021/12/01 03:26:08;;;;;;;9.77;6.27;;;;;;;0.24;69.93;96639.59;6208794;23;20184;-64
2021/12/01 03:28:35;;;;;;;10.40;6.97;;;;;;;-0.09;70.36;96637.44;6209678;23;20205;-62
2021/12/01 03:31:02;;;;;;;10.00;6.90;;;;;;;-0.14;69.71;96629.00;6208793;23;20231;-63
2021/12/01 03:33:30;;;;;;;10.83;6.50;;;;;;;-0.04;70.14;96639.06;6209772;23;20174;-63
2021/12/01 03:35:57;;;;;;;11.67;7.67;;;;;;;-0.25;70.62;96635.94;6208887;23;20166;-65
2021/12/01 03:38:26;;;;;;;9.00;6.43;;;;;;;-0.25;70.67;96638.47;6209194;23;20216;-63
2021/12/01 03:40:58;;;;;;;13.63;8.70;;;;;;;-0.14;70.37;96634.09;6183128;23;20189;-66
2021/12/01 03:43:26;;;;;;;9.80;5.77;;;;;;;-0.07;70.88;96645.91;6208813;23;20211;-64
2021/12/01 03:45:54;;;;;;;9.93;6.40;;;;;;;0.17;69.99;96642.22;6209393;23;20505;-64
2021/12/01 03:48:23;;;;;;;11.90;6.13;;;;;;;0.30;70.07;96625.94;6208463;23;20170;-64
2021/12/01 03:50:51;;;;;;;9.90;6.17;;;;;;;0.47;69.70;96635.06;6207491;23;20272;-64
2021/12/01 03:53:20;;;;;;;11.87;7.20;;;;;;;0.53;68.81;96627.34;6182413;23;20181;-65
2021/12/01 03:55:48;;;;;;;11.43;6.70;;;;;;;0.47;69.55;96631.69;6208921;23;20249;-64
2021/12/01 03:58:16;;;;;;;9.57;5.90;;;;;;;0.26;70.31;96649.75;6209180;23;20247;-64
2021/12/01 04:00:43;;;;;;;12.97;5.97;;;;;;;0.39;69.95;96641.13;6208363;23;20174;-63
2021/12/01 04:03:10;;;;;;;9.13;6.20;;;;;;;0.42;70.21;96628.34;6209345;23;20181;-64
2021/12/01 04:05:39;;;;;;;22.07;7.43;;;;;;;0.61;69.85;96642.53;6208457;23;20174;-61
2021/12/01 04:08:07;;;;;;;11.60;6.30;;;;;;;0.40;68.70;96643.66;6209300;23;20697;-63
2021/12/01 04:10:35;;;;;;;8.13;5.43;;;;;;;0.25;69.41;96636.19;6209100;23;20297;-64
2021/12/01 04:13:02;;;;;;;8.90;5.13;;;;;;;0.18;69.06;96626.09;6208627;23;20209;-64
2021/12/01 04:15:29;;;;;;;7.23;5.07;;;;;;;0.16;69.64;96622.75;6182041;23;21064;-63
2021/12/01 04:17:56;;;;;;;8.63;5.10;;;;;;;0.19;70.63;96641.34;6208507;23;20636;-64
2021/12/01 04:20:24;;;;;;;13.03;6.20;;;;;;;0.15;70.13;96647.34;6209122;23;20172;-63
2021/12/01 04:22:51;;;;;;;12.20;6.63;;;;;;;0.09;71.30;96649.09;6208025;23;20644;-63
2021/12/01 04:25:19;;;;;;;10.70;6.17;;;;;;;0.14;70.54;96635.50;6208960;23;20204;-64
2021/12/01 04:27:46;;;;;;;11.37;6.30;;;;;;;0.19;69.36;96645.59;6208593;23;20584;-63
2021/12/01 04:30:16;;;;;;;10.57;6.27;;;;;;;0.12;69.84;96636.38;6208298;23;20276;-63
2021/12/01 04:32:43;;;;;;;9.17;6.13;;;;;;;0.27;69.73;96656.56;6208789;23;20241;-62
2021/12/01 04:35:10;;;;;;;11.63;6.83;;;;;;;0.15;70.30;96659.22;6208377;23;20252;-60
2021/12/01 04:37:37;;;;;;;8.50;5.77;;;;;;;0.18;70.88;96623.56;6209106;23;20200;-64
2021/12/01 04:40:06;;;;;;;10.50;5.60;;;;;;;0.31;70.41;96630.19;6208153;23;20172;-62
2021/12/01 04:42:34;;;;;;;8.43;6.03;;;;;;;0.35;69.46;96662.41;6208556;23;20621;-64
2021/12/01 04:45:03;;;;;;;11.13;7.47;;;;;;;0.53;69.51;96645.19;6208348;23;20174;-64
2021/12/01 04:47:36;;;;;;;14.37;8.27;;;;;;;0.66;68.05;96669.59;6208317;23;20162;-65
2021/12/01 04:50:06;;;;;;;11.90;7.73;;;;;;;0.53;68.66;96659.63;6208716;23;20292;-65
2021/12/01 04:52:34;;;;;;;15.27;7.10;;;;;;;0.45;68.64;96666.50;6207659;23;20173;-63
2021/12/01 04:55:02;;;;;;;10.03;6.93;;;;;;;0.58;68.84;96662.94;6208818;23;20246;-65
2021/12/01 04:57:30;;;;;;;10.60;6.77;;;;;;;0.53;68.92;96663.00;6207916;23;20268;-64
2021/12/01 04:59:57;;;;;;;12.83;6.53;;;;;;;0.64;69.88;96658.59;6208151;23;20178;-64
2021/12/01 05:02:24;;;;;;;9.70;6.80;;;;;;;0.71;69.55;96659.38;6182150;23;20173;-62
2021/12/01 05:04:51;;;;;;;12.90;8.20;;;;;;;0.61;69.56;96639.97;6208037;23;20572;-64
2021/12/01 05:07:18;;;;;;;18.93;8.63;;;;;;;0.63;70.05;96645.88;6208863;23;20285;-65
2021/12/01 05:09:45;;;;;;;15.13;8.83;;;;;;;0.44;70.27;96652.94;6207830;23;20213;-65
2021/12/01 05:12:12;;;;;;;14.07;7.43;;;;;;;0.43;69.76;96643.63;6208493;23;20206;-60
2021/12/01 05:14:39;;;;;;;13.70;7.33;;;;;;;0.34;70.78;96636.09;6207462;23;20247;-63
2021/12/01 05:17:07;;;;;;;14.67;7.80;;;;;;;0.40;71.43;96636.00;6206433;23;20613;-63
2021/12/01 05:19:35;;;;;;;12.17;6.60;;;;;;;0.54;71.37;96638.34;6181462;23;20182;-65
2021/12/01 05:22:03;;;;;;;15.83;8.57;;;;;;;0.57;69.96;96638.31;6207469;23;20667;-64
2021/12/01 05:24:32;;;;;;;16.70;10.03;;;;;;;0.60;70.40;96635.72;6208114;23;20220;-64
2021/12/01 05:26:59;;;;;;;14.07;8.57;;;;;;;0.55;69.69;96617.97;6206945;23;20169;-65
2021/12/01 05:29:26;;;;;;;17.20;9.23;;;;;;;0.58;70.55;96637.44;6208295;23;20324;-65
2021/12/01 05:31:55;;;;;;;15.17;9.70;;;;;;;0.35;70.56;96635.19;6207397;23;20680;-61
2021/12/01 05:34:23;;;;;;;9.70;6.63;;;;;;;0.24;71.88;96633.66;6208041;23;20174;-63
2021/12/01 05:36:51;;;;;;;11.53;7.27;;;;;;;0.28;72.05;96653.13;6207787;23;20173;-65
2021/12/01 05:39:18;;;;;;;12.30;7.10;;;;;;;0.49;71.99;96646.09;6207554;23;20231;-62
2021/12/01 05:41:45;;;;;;;11.97;7.50;;;;;;;0.67;70.13;96660.28;6207971;23;20649;-62
2021/12/01 05:44:12;;;;;;;16.77;8.07;;;;;;;0.74;69.62;96651.69;6206762;23;20177;-65
2021/12/01 05:46:40;;;;;;;16.77;8.93;;;;;;;0.75;70.14;96648.25;6208569;23;20256;-61
2021/12/01 05:49:07;;;;;;;17.97;10.37;;;;;;;0.68;71.17;96654.31;6207502;23;20599;-65
2021/12/01 05:51:34;;;;;;;20.30;13.80;;;;;;;0.79;70.85;96635.47;6207710;23;20177;-64
2021/12/01 05:54:02;;;;;;;17.70;10.67;;;;;;;0.91;70.52;96643.81;6207507;23;20202;-62
2021/12/01 05:56:30;;;;;;;16.20;10.03;;;;;;;0.89;70.82;96645.53;6181055;23;20178;-64
2021/12/01 05:58:57;;;;;;;19.40;9.27;;;;;;;1.00;71.25;96649.59;6207728;23;20205;-63
2021/12/01 06:01:25;;;;;;;16.83;9.33;;;;;;;0.99;70.16;96647.09;6207047;23;20617;-65
2021/12/01 06:03:52;;;;;;;20.40;10.53;;;;;;;0.95;71.09;96638.63;6181440;23;20586;-66
2021/12/01 06:06:19;;;;;;;17.13;9.57;;;;;;;1.13;70.08;96628.16;6207325;23;20531;-62
2021/12/01 06:08:46;;;;;;;14.63;9.23;;;;;;;1.32;69.58;96652.47;6207771;23;20182;-63
2021/12/01 06:11:14;;;;;;;22.17;8.87;;;;;;;1.46;67.77;96652.28;6206875;23;20293;-65
2021/12/01 06:13:43;;;;;;;16.00;8.37;;;;;;;1.47;66.87;96652.25;6206840;23;20496;-64
2021/12/01 06:16:10;;;;;;;14.23;6.97;;;;;;;1.47;67.48;96653.94;6207885;23;20886;-60
2021/12/01 06:18:37;;;;;;;14.87;7.87;;;;;;;1.65;65.81;96644.25;6180571;23;20531;-61
2021/12/01 06:21:04;;;;;;;10.50;6.80;;;;;;;1.63;64.82;96651.09;6207427;23;20273;-63
2021/12/01 06:23:32;;;;;;;12.30;7.60;;;;;;;1.50;65.71;96653.91;6206911;23;20193;-65
2021/12/01 06:25:59;;;;;;;11.20;5.87;;;;;;;1.46;64.92;96642.88;6207388;23;20201;-62
2021/12/01 06:28:26;;;;;;;18.60;8.20;;;;;;;1.51;65.16;96653.88;6206471;23;20166;-65
2021/12/01 06:30:53;;;;;;;15.00;9.37;;;;;;;1.42;65.14;96663.41;6206739;23;20217;-65
2021/12/01 06:33:23;;;;;;;16.73;10.77;;;;;;;1.20;67.80;96678.19;6207823;23;20258;-62
2021/12/01 06:35:51;;;;;;;12.80;9.00;;;;;;;1.34;66.96;96694.09;6206644;23;20513;-62
2021/12/01 06:38:20;;;;;;;17.57;9.37;;;;;;;1.42;67.60;96687.16;6208464;23;20607;-64
2021/12/01 06:40:48;;;;;;;25.40;9.77;;;;;;;1.53;67.28;96677.66;6206833;23;20193;-65
2021/12/01 06:43:16;;;;;;;17.57;8.07;;;;;;;1.56;67.59;96674.22;6209432;23;20533;-64
2021/12/01 06:45:45;;;;;;;19.83;7.40;;;;;;;1.59;67.62;96679.25;6208629;23;20180;-65
2021/12/01 06:48:12;;;;;;;13.63;8.03;;;;;;;1.67;67.73;96662.94;6208911;23;20570;-64
2021/12/01 06:50:39;;;;;;;8.77;6.07;;;;;;;1.46;68.31;96678.59;6208532;23;20201;-65
2021/12/01 06:53:07;;;;;;;8.50;5.97;;;;;;;1.47;69.02;96690.50;6206580;23;20177;-63
2021/12/01 06:55:34;;;;;;;15.47;6.83;;;;;;;1.68;68.92;96699.53;6209600;23;20546;-63
2021/12/01 06:58:01;;;;;;;10.97;7.73;;;;;;;1.70;68.02;96687.56;6208625;23;20572;-63
2021/12/01 07:00:30;;;;;;;9.70;6.90;;;;;;;1.75;67.95;96680.69;6209107;23;20197;-64
2021/12/01 07:02:57;;;;;;;16.83;7.57;;;;;;;1.83;68.42;96673.75;6208719;23;20235;-63
2021/12/01 07:05:25;;;;;;;15.30;8.63;;;;;;;1.93;67.87;96667.59;6208234;23;20217;-62
2021/12/01 07:07:53;;;;;;;19.07;12.47;;;;;;;1.84;67.85;96680.50;6208897;23;20182;-62
2021/12/01 07:10:20;;;;;;;13.60;9.10;;;;;;;1.73;68.21;96685.00;6207767;23;20742;-65
2021/12/01 07:12:48;;;;;;;16.67;9.33;;;;;;;1.89;67.87;96688.09;6208984;23;20235;-62
2021/12/01 07:15:18;;;;;;;19.20;10.10;;;;;;;1.96;68.10;96675.19;6207897;23;20174;-64
2021/12/01 07:17:46;;;;;;;11.60;8.20;;;;;;;2.08;66.91;96677.50;6209106;23;20219;-62
2021/12/01 07:20:14;;;;;;;24.40;10.13;;;;;;;2.15;66.96;96666.31;6208738;23;20267;-64
2021/12/01 07:22:42;;;;;;;17.23;11.10;;;;;;;2.04;66.90;96670.78;6208118;23;20623;-64
2021/12/01 07:25:11;;;;;;;21.70;11.50;;;;;;;2.06;66.63;96678.44;6208846;23;20564;-65
2021/12/01 07:27:38;;;;;;;20.40;11.77;;;;;;;2.10;67.27;96657.06;6181196;23;20582;-64
2021/12/01 07:30:07;;;;;;;19.30;12.60;;;;;;;2.21;66.95;96683.22;6208530;23;20614;-63
2021/12/01 07:32:35;;;;;;;25.80;13.00;;;;;;;2.20;67.47;96674.75;6181465;23;20249;-63
2021/12/01 07:35:04;;;;;;;25.17;12.50;;;;;;;2.24;66.23;96686.59;6208562;23;20204;-63
2021/12/01 07:37:31;;;;;;;25.60;12.97;;;;;;;2.28;66.30;96664.38;6181647;23;20166;-65
2021/12/01 07:39:58;;;;;;;21.63;12.97;;;;;;;2.17;66.77;96677.34;6208282;23;20544;-62
2021/12/01 07:42:25;;;;;;;22.27;14.13;;;;;;;2.25;67.29;96672.09;6207294;23;20596;-62
2021/12/01 07:44:52;;;;;;;29.47;16.40;;;;;;;2.23;67.44;96650.84;6207429;23;20224;-64
2021/12/01 07:47:20;;;;;;;25.80;15.17;;;;;;;2.33;67.46;96654.91;6206763;23;20178;-65
2021/12/01 07:49:47;;;;;;;27.37;15.23;;;;;;;2.25;67.00;96664.44;6206892;23;20176;-62
2021/12/01 07:52:14;;;;;;;27.97;15.87;;;;;;;2.11;68.06;96668.97;6208385;23;20193;-65
2021/12/01 07:54:41;;;;;;;26.60;15.30;;;;;;;2.09;67.95;96657.94;6207835;23;20260;-65
2021/12/01 07:57:09;;;;;;;20.23;11.30;;;;;;;2.22;67.49;96652.59;6208038;23;20545;-64
2021/12/01 07:59:36;;;;;;;22.83;11.93;;;;;;;2.06;67.17;96651.16;6181646;23;20228;-61
2021/12/01 08:02:04;;;;;;;26.70;11.43;;;;;;;2.07;67.36;96654.56;6207769;23;20240;-64
2021/12/01 08:04:31;;;;;;;22.13;11.10;;;;;;;2.05;67.83;96664.81;6208217;23;20174;-64
2021/12/01 08:06:58;;;;;;;28.50;12.37;;;;;;;1.94;67.86;96673.56;6180656;23;20269;-65
2021/12/01 08:09:26;;;;;;;22.90;13.77;;;;;;;2.10;67.42;96677.50;6207490;23;20228;-63
2021/12/01 08:11:54;;;;;;;32.87;13.33;;;;;;;1.79;67.52;96677.22;6207211;23;20216;-65
2021/12/01 08:14:21;;;;;;;23.83;12.10;;;;;;;2.00;67.71;96681.09;6207692;23;20173;-66
2021/12/01 08:16:49;;;;;;;18.03;11.73;;;;;;;1.96;67.66;96680.28;6208627;23;20526;-65
2021/12/01 08:19:16;;;;;;;24.37;11.20;;;;;;;2.35;65.72;96697.44;6207096;23;20239;-64
2021/12/01 08:21:47;;;;;;;20.23;11.17;;;;;;;2.21;65.98;96690.91;6208011;23;20185;-65
2021/12/01 08:24:15;;;;;;;20.23;11.27;;;;;;;2.50;64.39;96703.97;6206911;23;20208;-62
2021/12/01 08:26:44;;;;;;;21.80;12.63;;;;;;;2.54;64.43;96682.56;6180901;23;20688;-65
2021/12/01 08:29:12;;;;;;;23.23;13.17;;;;;;;2.79;64.20;96691.44;6207736;23;20667;-65
2021/12/01 08:31:39;;;;;;;23.00;12.57;;;;;;;2.46;62.63;96602.69;6206982;23;20260;-64
2021/12/01 08:34:07;;;;;;;25.20;13.00;;;;;;;2.89;63.03;96682.69;6208291;23;20165;-64
2021/12/01 08:36:34;;;;;;;25.53;13.27;;;;;;;2.93;63.64;96683.44;6180040;23;20185;-65
2021/12/01 08:39:04;;;;;;;29.87;14.90;;;;;;;3.17;63.17;96693.97;6208198;23;20182;-64
2021/12/01 08:41:32;;;;;;;35.73;17.97;;;;;;;3.32;63.17;96689.41;6206935;23;20188;-65
2021/12/01 08:43:59;;;;;;;27.70;16.77;;;;;;;3.44;62.72;96677.19;6207394;23;20246;-64
2021/12/01 08:46:26;;;;;;;43.20;19.93;;;;;;;3.44;62.58;96691.69;6207774;23;20192;-64
2021/12/01 08:48:53;;;;;;;38.40;20.73;;;;;;;3.56;63.36;96670.91;6180616;23;20173;-64
2021/12/01 08:51:20;;;;;;;31.90;19.73;;;;;;;3.60;63.76;96678.47;6207183;23;20209;-66
2021/12/01 08:53:47;;;;;;;38.97;20.37;;;;;;;3.82;62.86;96694.16;6206364;23;20184;-65
2021/12/01 08:56:15;;;;;;;38.70;20.87;;;;;;;3.87;63.07;96684.63;6205971;23;20473;-65
2021/12/01 08:58:43;;;;;;;38.47;17.23;;;;;;;3.95;62.80;96696.38;6207152;23;20174;-67
2021/12/01 09:01:10;;;;;;;38.83;20.00;;;;;;;4.01;62.58;96673.16;6206727;23;20190;-66
2021/12/01 09:03:38;;;;;;;40.63;20.33;;;;;;;4.16;62.21;96674.47;6206929;23;20165;-65
2021/12/01 09:06:06;;;;;;;39.50;21.73;;;;;;;4.12;62.53;96665.19;6180006;23;20174;-64
2021/12/01 09:08:34;;;;;;;38.57;20.83;;;;;;;3.99;61.92;96636.50;6207662;23;20269;-64
2021/12/01 09:11:04;;;;;;;38.07;21.53;;;;;;;4.54;61.10;96661.44;6206589;23;20213;-64
2021/12/01 09:13:35;;;;;;;34.63;19.10;;;;;;;4.61;60.07;96647.56;6207512;23;20169;-67
2021/12/01 09:16:03;;;;;;;33.73;19.80;;;;;;;4.90;60.20;96662.13;6206896;23;20179;-66
2021/12/01 09:18:31;;;;;;;35.63;19.27;;;;;;;5.12;59.12;96649.47;6206849;23;20178;-64
2021/12/01 09:20:58;;;;;;;31.73;17.70;;;;;;;5.18;59.42;96650.13;6206190;23;20564;-64
2021/12/01 09:23:25;;;;;;;40.77;21.60;;;;;;;5.36;58.67;96657.25;6206391;23;20638;-65
2021/12/01 09:25:54;;;;;;;32.20;17.47;;;;;;;5.41;57.94;96657.09;6179950;23;20178;-65
2021/12/01 09:28:23;;;;;;;19.27;11.90;;;;;;;5.32;56.15;96647.97;6206349;23;20175;-65
2021/12/01 09:30:52;;;;;;;29.90;13.07;;;;;;;5.28;57.05;96640.41;6207458;23;20207;-65
2021/12/01 09:33:23;;;;;;;24.47;12.27;;;;;;;5.55;56.25;96639.53;6206101;23;20178;-66
2021/12/01 09:35:51;;;;;;;21.53;13.30;;;;;;;5.76;56.26;96642.22;6207083;23;20293;-64
2021/12/01 09:38:19;;;;;;;23.07;14.83;;;;;;;5.75;55.04;96611.44;6205538;23;20184;-64
2021/12/01 09:40:54;;;;;;;26.57;13.03;;;;;;;5.92;56.42;96601.47;6204911;23;20499;-65
2021/12/01 09:43:25;;;;;;;27.20;12.27;;;;;;;6.24;56.02;96608.06;6207459;23;20173;-65
2021/12/01 09:45:55;;;;;;;21.63;11.70;;;;;;;6.43;54.49;96617.59;6206417;23;20223;-66
2021/12/01 09:48:23;;;;;;;30.40;11.90;;;;;;;6.62;55.96;96614.34;6156081;23;20198;-65
2021/12/01 09:51:12;;;;;;;24.73;12.00;;;;;;;6.77;56.20;96606.06;6206903;23;20211;-65
2021/12/01 09:53:39;;;;;;;20.43;10.10;;;;;;;7.05;55.30;96607.53;6155154;23;20549;-66
2021/12/01 09:56:07;;;;;;;18.70;10.87;;;;;;;7.05;56.02;96586.09;6206683;23;20174;-65
2021/12/01 09:58:35;;;;;;;22.40;9.63;;;;;;;7.19;56.03;96605.25;6205750;23;20177;-63
2021/12/01 10:01:09;;;;;;;19.70;8.20;;;;;;;7.26;55.43;96593.81;6180076;23;20191;-65
2021/12/01 10:03:37;;;;;;;14.23;5.77;;;;;;;7.48;55.23;96596.34;6206276;23;20192;-63
2021/12/01 10:06:09;;;;;;;13.53;6.27;;;;;;;7.76;54.64;96591.75;6207007;23;20277;-64
2021/12/01 10:08:39;;;;;;;11.63;6.50;;;;;;;7.86;54.36;96597.34;6206780;23;20166;-64
2021/12/01 10:11:09;;;;;;;10.30;5.10;;;;;;;7.85;54.65;96588.78;6205782;23;20206;-65
2021/12/01 10:13:43;;;;;;;7.93;5.20;;;;;;;7.67;54.69;96592.13;6208514;23;20189;-64
2021/12/01 10:16:13;;;;;;;10.83;5.80;;;;;;;7.33;55.47;96555.78;6208553;23;20177;-66
2021/12/01 10:18:44;;;;;;;8.50;5.20;;;;;;;7.58;56.28;96602.84;6209444;23;20189;-64
2021/12/01 10:21:19;;;;;;;9.80;5.80;;;;;;;7.53;55.83;96589.28;6208649;23;20197;-64
2021/12/01 10:23:59;;;;;;;10.40;6.60;;;;;;;7.50;57.07;96591.97;6207952;23;20253;-66
2021/12/01 10:26:36;;;;;;;4.23;3.30;;;;;;;7.78;56.25;96594.25;6208391;23;20202;-67
2021/12/01 10:29:11;;;;;;;10.87;5.63;;;;;;;7.89;55.46;96589.50;6207924;23;20272;-63
2021/12/01 10:31:51;;;;;;;2.73;2.03;;;;;;;8.12;54.29;96589.34;6208705;23;20203;-65
2021/12/01 10:34:35;;;;;;;3.37;2.60;;;;;;;8.31;54.39;96586.81;6206685;23;20177;-65
2021/12/01 10:37:06;;;;;;;8.63;4.10;;;;;;;8.27;54.42;96569.81;6207933;23;20735;-65
2021/12/01 10:39:34;;;;;;;7.17;4.27;;;;;;;8.20;54.53;96570.06;6182181;23;20233;-63
2021/12/01 10:42:07;;;;;;;11.20;4.37;;;;;;;8.30;55.32;96572.28;6207801;23;20192;-65
2021/12/01 10:44:35;;;;;;;5.73;3.63;;;;;;;8.31;53.85;96573.94;6208834;23;20170;-65
2021/12/01 10:47:09;;;;;;;4.17;2.27;;;;;;;8.38;53.84;96577.91;6208135;23;20248;-64
2021/12/01 10:49:43;;;;;;;7.83;3.33;;;;;;;8.50;53.23;96564.47;6208084;23;20261;-65
2021/12/01 10:52:33;;;;;;;2.53;1.60;;;;;;;8.76;52.50;96580.44;6208807;23;20212;-63
2021/12/01 10:55:13;;;;;;;4.43;3.03;;;;;;;8.63;53.05;96579.34;6181832;23;20230;-64
2021/12/01 10:57:43;;;;;;;3.97;2.50;;;;;;;8.74;53.27;96578.81;6208198;23;20264;-64
2021/12/01 11:00:19;;;;;;;4.80;2.10;;;;;;;9.05;52.41;96568.75;6208611;23;20186;-66
2021/12/01 11:02:47;;;;;;;2.30;1.70;;;;;;;9.29;51.22;96565.03;6208224;23;20193;-65
2021/12/01 11:05:38;;;;;;;1.97;1.87;;;;;;;9.36;50.97;96562.94;6182355;23;20658;-63
2021/12/01 11:08:17;;;;;;;4.07;2.10;;;;;;;9.47;51.27;96560.69;6195141;23;20185;-65
2021/12/01 11:10:55;;;;;;;3.20;1.90;;;;;;;9.33;51.07;96556.22;6180979;23;20228;-64
2021/12/01 11:13:24;;;;;;;6.53;2.33;;;;;;;9.19;51.45;96544.88;6208138;23;20252;-63
2021/12/01 11:15:56;;;;;;;2.00;1.53;;;;;;;9.25;51.47;96560.06;6181857;23;20549;-64
2021/12/01 11:18:47;;;;;;;2.07;1.70;;;;;;;9.16;50.81;96545.00;6185789;23;20162;-63
2021/12/01 11:21:23;;;;;;;3.70;2.20;;;;;;;9.23;51.71;96549.81;6207282;23;20217;-64
2021/12/01 11:23:56;;;;;;;3.17;2.30;;;;;;;9.18;52.17;96541.44;6208106;23;20241;-62
2021/12/01 11:26:26;;;;;;;7.93;4.00;;;;;;;9.25;51.98;96548.00;6208155;23;20173;-65
2021/12/01 11:28:54;;;;;;;3.53;2.60;;;;;;;9.07;51.68;96550.63;6180542;23;20182;-63
2021/12/01 11:31:28;;;;;;;4.67;3.33;;;;;;;8.99;52.30;96538.06;6209082;23;20217;-63
2021/12/01 11:33:58;;;;;;;7.77;4.13;;;;;;;9.00;52.11;96548.31;6207451;23;20560;-65
2021/12/01 11:36:31;;;;;;;8.63;4.13;;;;;;;8.94;52.38;96548.59;6208353;23;20225;-65
2021/12/01 11:39:03;;;;;;;6.43;3.33;;;;;;;8.85;52.89;96538.72;6208507;23;20205;-64
2021/12/01 11:41:31;;;;;;;8.97;4.27;;;;;;;8.90;52.17;96533.34;6208298;23;20170;-63
2021/12/01 11:43:59;;;;;;;8.03;4.40;;;;;;;8.88;52.72;96517.91;6182068;23;20178;-63
2021/12/01 11:46:30;;;;;;;10.53;4.03;;;;;;;9.09;51.45;96521.22;6207255;23;20224;-64
2021/12/01 11:49:00;;;;;;;3.97;2.23;;;;;;;9.31;50.92;96527.03;6181877;23;20604;-63
2021/12/01 11:51:31;;;;;;;3.73;2.33;;;;;;;9.42;50.49;96548.00;6207512;23;20284;-62